createdAt,value
2023-11-07T00:00:30.876Z,100409.50
2023-11-07T00:02:57.656Z,100385.25
2023-11-07T00:05:24.358Z,100418.34
2023-11-07T00:07:51.020Z,100421.00
2023-11-07T00:10:17.758Z,100426.38
2023-11-07T00:12:44.384Z,100421.84
2023-11-07T00:15:11.261Z,100431.63
2023-11-07T00:17:38.166Z,100436.09
2023-11-07T00:20:05.980Z,100437.88
2023-11-07T00:22:32.881Z,100448.56
2023-11-07T00:25:00.086Z,100437.13
2023-11-07T00:27:29.063Z,100442.44
2023-11-07T00:29:55.714Z,100420.25
2023-11-07T00:32:22.289Z,100441.56
2023-11-07T00:34:49.413Z,100456.59
2023-11-07T00:37:16.077Z,100455.69
2023-11-07T00:39:42.707Z,100454.91
2023-11-07T00:42:09.937Z,100463.00
2023-11-07T00:44:36.716Z,100460.47
2023-11-07T00:47:03.815Z,100464.00
2023-11-07T00:49:30.501Z,100464.97
2023-11-07T00:51:58.965Z,100456.13
2023-11-07T00:54:25.577Z,100462.28
2023-11-07T00:56:52.288Z,100457.69
2023-11-07T00:59:19.467Z,100457.59
2023-11-07T01:01:46.098Z,100463.81
2023-11-07T01:04:12.921Z,100477.88
2023-11-07T01:06:39.656Z,100465.41
2023-11-07T01:09:06.355Z,100458.22
2023-11-07T01:11:33.119Z,100475.19
2023-11-07T01:13:59.745Z,100464.44
2023-11-07T01:16:26.636Z,100466.31
2023-11-07T01:18:53.874Z,100470.00
2023-11-07T01:21:20.734Z,100448.56
2023-11-07T01:23:47.319Z,100462.88
2023-11-07T01:26:13.942Z,100485.16
2023-11-07T01:28:40.552Z,100479.75
2023-11-07T01:31:07.649Z,100485.94
2023-11-07T01:33:34.443Z,100492.91
2023-11-07T01:36:01.201Z,100485.00
2023-11-07T01:38:29.040Z,100489.59
2023-11-07T01:40:55.696Z,100474.41
2023-11-07T01:43:22.848Z,100480.53
2023-11-07T01:45:49.919Z,100485.97
2023-11-07T01:48:23.887Z,100484.09
2023-11-07T01:50:51.157Z,100482.31
2023-11-07T01:53:19.386Z,100486.72
2023-11-07T01:55:46.211Z,100486.75
2023-11-07T01:58:13.588Z,100497.41
2023-11-07T02:00:41.238Z,100503.50
2023-11-07T02:03:08.851Z,100508.81
2023-11-07T02:05:35.955Z,100495.56
2023-11-07T02:08:05.793Z,100501.84
2023-11-07T02:10:33.119Z,100479.72
2023-11-07T02:13:00.455Z,100501.25
2023-11-07T02:15:27.793Z,100451.50
2023-11-07T02:17:56.462Z,100504.03
2023-11-07T02:20:23.588Z,100504.22
2023-11-07T02:22:55.330Z,100498.94
2023-11-07T02:25:22.060Z,100451.00
2023-11-07T02:27:49.079Z,100468.03
2023-11-07T02:30:15.756Z,100493.88
2023-11-07T02:32:43.930Z,100493.16
2023-11-07T02:35:15.154Z,100490.53
2023-11-07T02:37:42.065Z,100472.78
2023-11-07T02:40:12.247Z,100493.41
2023-11-07T02:42:39.408Z,100489.94
2023-11-07T02:45:07.036Z,100491.03
2023-11-07T02:47:36.381Z,100459.91
2023-11-07T02:50:06.110Z,100485.84
2023-11-07T02:52:32.992Z,100462.69
2023-11-07T02:55:01.476Z,100491.06
2023-11-07T02:57:28.098Z,100463.41
2023-11-07T02:59:54.906Z,100489.19
2023-11-07T03:02:22.177Z,100489.19
2023-11-07T03:04:49.491Z,100483.75
2023-11-07T03:07:16.202Z,100489.19
2023-11-07T03:09:42.877Z,100479.34
2023-11-07T03:12:13.838Z,100479.28
2023-11-07T03:14:42.369Z,100474.81
2023-11-07T03:17:09.059Z,100454.38
2023-11-07T03:19:35.650Z,100482.78
2023-11-07T03:22:02.292Z,100486.22
2023-11-07T03:24:29.108Z,100466.66
2023-11-07T03:26:55.776Z,100472.84
2023-11-07T03:29:22.785Z,100474.66
2023-11-07T03:31:49.852Z,100471.00
2023-11-07T03:34:17.469Z,100488.78
2023-11-07T03:36:44.736Z,100478.19
2023-11-07T03:39:11.905Z,100486.19
2023-11-07T03:41:42.639Z,100483.56
2023-11-07T03:44:09.413Z,100467.47
2023-11-07T03:46:35.984Z,100484.44
2023-11-07T03:49:03.023Z,100496.00
2023-11-07T03:51:29.772Z,100490.69
2023-11-07T03:53:56.513Z,100470.22
2023-11-07T03:56:23.964Z,100489.84
2023-11-07T03:58:51.109Z,100504.94
2023-11-07T04:01:18.043Z,100495.16
2023-11-07T04:03:44.824Z,100508.41
2023-11-07T04:06:11.593Z,100489.66
2023-11-07T04:08:38.348Z,100504.75
2023-11-07T04:11:05.433Z,100500.28
2023-11-07T04:13:32.073Z,100484.16
2023-11-07T04:15:59.159Z,100488.66
2023-11-07T04:18:25.956Z,100460.19
2023-11-07T04:20:53.319Z,100492.34
2023-11-07T04:23:20.960Z,100489.63
2023-11-07T04:25:48.904Z,100508.00
2023-11-07T04:28:17.750Z,100511.44
2023-11-07T04:30:44.789Z,100509.59
2023-11-07T04:33:11.604Z,100521.88
2023-11-07T04:35:38.471Z,100492.50
2023-11-07T04:38:05.651Z,100517.44
2023-11-07T04:40:32.315Z,100502.50
2023-11-07T04:42:59.087Z,100513.06
2023-11-07T04:45:25.735Z,100505.09
2023-11-07T04:48:18.139Z,100506.94
2023-11-07T04:50:45.794Z,100502.56
2023-11-07T04:53:12.436Z,100505.28
2023-11-07T04:55:39.061Z,100481.31
2023-11-07T04:58:06.086Z,100507.16
2023-11-07T05:00:32.730Z,100515.28
2023-11-07T05:02:59.567Z,100476.97
2023-11-07T05:05:26.533Z,100507.41
2023-11-07T05:07:53.111Z,100515.34
2023-11-07T05:10:21.605Z,100498.56
2023-11-07T05:12:48.192Z,100513.59
2023-11-07T05:15:14.904Z,100513.53
2023-11-07T05:17:41.782Z,100502.72
2023-11-07T05:20:11.320Z,100490.16
2023-11-07T05:22:38.167Z,100495.44
2023-11-07T05:25:07.633Z,100517.63
2023-11-07T05:27:34.664Z,100514.97
2023-11-07T05:30:01.845Z,100498.16
2023-11-07T05:32:28.972Z,100513.41
2023-11-07T05:34:56.190Z,100514.34
2023-11-07T05:37:23.028Z,100490.44
2023-11-07T05:39:51.456Z,100512.00
2023-11-07T05:42:19.467Z,100510.34
2023-11-07T05:44:46.852Z,100511.28
2023-11-07T05:47:13.747Z,100515.81
2023-11-07T05:49:40.381Z,100510.47
2023-11-07T05:52:07.081Z,100485.63
2023-11-07T05:54:33.686Z,100528.38
2023-11-07T05:57:00.248Z,100522.22
2023-11-07T05:59:27.861Z,100524.91
2023-11-07T06:01:55.603Z,100521.38
2023-11-07T06:04:35.512Z,100507.06
2023-11-07T06:07:02.257Z,100524.88
2023-11-07T06:09:30.030Z,100528.41
2023-11-07T06:12:00.395Z,100529.34
2023-11-07T06:14:27.011Z,100545.28
2023-11-07T06:16:56.934Z,100498.25
2023-11-07T06:19:23.795Z,100516.00
2023-11-07T06:21:50.835Z,100532.06
2023-11-07T06:24:17.982Z,100521.44
2023-11-07T06:26:47.050Z,100530.19
2023-11-07T06:29:15.968Z,100539.97
2023-11-07T06:31:46.560Z,100527.44
2023-11-07T06:34:15.520Z,100530.97
2023-11-07T06:36:42.364Z,100547.78
2023-11-07T06:39:11.470Z,100545.13
2023-11-07T06:41:39.493Z,100551.25
2023-11-07T06:44:07.510Z,100561.13
2023-11-07T06:46:34.323Z,100573.56
2023-11-07T06:49:02.596Z,100559.34
2023-11-07T06:51:29.561Z,100563.88
2023-11-07T06:53:56.648Z,100576.28
2023-11-07T06:56:23.320Z,100573.66
2023-11-07T06:58:49.965Z,100571.03
2023-11-07T07:01:16.581Z,100561.25
2023-11-07T07:03:43.559Z,100582.53
2023-11-07T07:06:10.352Z,100583.41
2023-11-07T07:08:37.128Z,100582.53
2023-11-07T07:11:06.041Z,100583.38
2023-11-07T07:13:32.937Z,100589.69
2023-11-07T07:16:01.067Z,100592.38
2023-11-07T07:18:28.418Z,100585.38
2023-11-07T07:20:56.460Z,100574.69
2023-11-07T07:23:26.513Z,100591.56
2023-11-07T07:26:00.881Z,100585.34
2023-11-07T07:28:27.440Z,100564.88
2023-11-07T07:30:55.403Z,100589.81
2023-11-07T07:33:25.385Z,100595.97
2023-11-07T07:35:52.389Z,100580.84
2023-11-07T07:38:19.110Z,100592.41
2023-11-07T07:40:45.664Z,100606.72
2023-11-07T07:43:12.714Z,100600.53
2023-11-07T07:45:44.010Z,100556.91
2023-11-07T07:48:12.190Z,100589.06
2023-11-07T07:50:43.764Z,100593.53
2023-11-07T07:53:11.836Z,100611.31
2023-11-07T07:55:44.840Z,100606.00
2023-11-07T07:58:12.262Z,100594.50
2023-11-07T08:00:39.412Z,100610.53
2023-11-07T08:03:10.843Z,100597.22
2023-11-07T08:05:40.896Z,100615.13
2023-11-07T08:08:08.753Z,100624.94
2023-11-07T08:10:36.274Z,100624.13
2023-11-07T08:13:08.145Z,100623.28
2023-11-07T08:15:36.552Z,100631.41
2023-11-07T08:18:08.464Z,100628.94
2023-11-07T08:20:36.242Z,100632.59
2023-11-07T08:23:02.851Z,100629.09
2023-11-07T08:25:29.509Z,100622.00
2023-11-07T08:27:56.215Z,100612.16
2023-11-07T08:30:24.213Z,100651.59
2023-11-07T08:32:52.242Z,100648.66
2023-11-07T08:35:22.025Z,100626.00
2023-11-07T08:37:51.494Z,100609.19
2023-11-07T08:40:22.117Z,100638.53
2023-11-07T08:42:49.757Z,100648.28
2023-11-07T08:45:22.785Z,100658.00
2023-11-07T08:47:52.340Z,100651.84
2023-11-07T08:50:22.214Z,100653.69
2023-11-07T08:52:51.116Z,100647.44
2023-11-07T08:55:19.351Z,100663.44
2023-11-07T08:57:47.492Z,100640.31
2023-11-07T09:00:22.622Z,100665.16
2023-11-07T09:02:51.060Z,100661.63
2023-11-07T09:05:18.357Z,100659.09
2023-11-07T09:07:45.804Z,100654.56
2023-11-07T09:10:12.773Z,100674.09
2023-11-07T09:12:42.785Z,100681.19
2023-11-07T09:15:12.174Z,100684.78
2023-11-07T09:17:40.493Z,100682.13
2023-11-07T09:20:10.861Z,100682.19
2023-11-07T09:22:37.615Z,100654.53
2023-11-07T09:25:05.205Z,100677.94
2023-11-07T09:27:32.655Z,100685.97
2023-11-07T09:30:00.592Z,100674.88
2023-11-07T09:32:27.712Z,100658.97
2023-11-07T09:34:58.196Z,100650.13
2023-11-07T09:37:25.117Z,100688.22
2023-11-07T09:39:52.016Z,100674.31
2023-11-07T09:42:18.971Z,100687.00
2023-11-07T09:44:45.773Z,100681.81
2023-11-07T09:47:13.309Z,100668.28
2023-11-07T09:49:40.206Z,100689.31
2023-11-07T09:52:07.997Z,100672.31
2023-11-07T09:54:35.491Z,100701.72
2023-11-07T09:57:05.111Z,100695.56
2023-11-07T09:59:38.157Z,100699.75
2023-11-07T10:02:07.776Z,100702.28
2023-11-07T10:04:36.300Z,100696.63
2023-11-07T10:07:04.185Z,100695.47
2023-11-07T10:09:33.343Z,100702.88
2023-11-07T10:12:00.813Z,100671.81
2023-11-07T10:14:27.579Z,100698.22
2023-11-07T10:16:58.257Z,100694.94
2023-11-07T10:19:26.784Z,100691.53
2023-11-07T10:21:53.962Z,100697.88
2023-11-07T10:24:21.283Z,100704.34
2023-11-07T10:26:55.663Z,100710.09
2023-11-07T10:29:28.795Z,100729.06
2023-11-07T10:32:07.503Z,100710.06
2023-11-07T10:34:34.366Z,100694.44
2023-11-07T10:37:01.540Z,100710.94
2023-11-07T10:39:29.947Z,100703.22
2023-11-07T10:41:57.644Z,100677.75
2023-11-07T10:44:30.491Z,100715.69
2023-11-07T10:47:01.754Z,100706.25
2023-11-07T10:49:32.125Z,100706.81
2023-11-07T10:52:03.983Z,100690.69
2023-11-07T10:54:32.094Z,100711.63
2023-11-07T10:57:11.165Z,100715.25
2023-11-07T10:59:44.952Z,100714.63
2023-11-07T11:02:12.459Z,100718.28
2023-11-07T11:04:40.639Z,100720.22
2023-11-07T11:07:09.643Z,100716.81
2023-11-07T11:09:36.510Z,100687.50
2023-11-07T11:12:05.160Z,100724.91
2023-11-07T11:14:31.816Z,100691.06
2023-11-07T11:17:09.882Z,100702.56
2023-11-07T11:19:46.402Z,100707.13
2023-11-07T11:22:19.759Z,100709.38
2023-11-07T11:25:17.526Z,100696.50
2023-11-07T11:27:49.841Z,100704.94
2023-11-07T11:30:17.833Z,100709.16
2023-11-07T11:32:47.854Z,100708.59
2023-11-07T11:35:17.161Z,100724.81
2023-11-07T11:38:13.876Z,100712.41
2023-11-07T11:40:51.184Z,100716.00
2023-11-07T11:43:22.894Z,100718.66
2023-11-07T11:45:57.013Z,100716.84
2023-11-07T11:48:51.763Z,100703.84
2023-11-07T11:51:34.970Z,100694.13
2023-11-07T11:54:01.739Z,100695.34
2023-11-07T11:56:29.413Z,100696.78
2023-11-07T11:59:07.514Z,100685.50
2023-11-07T12:01:51.896Z,100695.75
2023-11-07T12:04:32.482Z,100693.09
2023-11-07T12:07:21.718Z,100707.09
2023-11-07T12:09:51.319Z,100719.09
2023-11-07T12:12:20.061Z,100709.53
2023-11-07T12:14:58.386Z,100707.34
2023-11-07T12:17:27.406Z,100688.84
2023-11-07T12:20:07.534Z,100720.94
2023-11-07T12:22:34.992Z,100701.38
2023-11-07T12:25:21.612Z,100709.50
2023-11-07T12:27:57.645Z,100705.94
2023-11-07T12:30:24.420Z,100714.69
2023-11-07T12:33:03.552Z,100683.72
2023-11-07T12:35:31.232Z,100683.78
2023-11-07T12:38:01.479Z,100700.72
2023-11-07T12:40:28.634Z,100707.00
2023-11-07T12:42:57.555Z,100681.28
2023-11-07T12:45:32.483Z,100708.88
2023-11-07T12:48:07.263Z,100703.56
2023-11-07T12:50:37.224Z,100715.13
2023-11-07T12:53:06.963Z,100702.66
2023-11-07T12:55:37.041Z,100686.59
2023-11-07T12:58:04.896Z,100665.28
2023-11-07T13:00:52.208Z,100682.13
2023-11-07T13:03:24.940Z,100701.72
2023-11-07T13:06:06.503Z,100694.53
2023-11-07T13:08:35.886Z,100696.25
2023-11-07T13:11:10.696Z,100696.25
2023-11-07T13:13:38.078Z,100683.66
2023-11-07T13:16:05.136Z,100703.00
2023-11-07T13:18:31.805Z,100705.72
2023-11-07T13:20:58.520Z,100708.59
2023-11-07T13:23:25.121Z,100692.72
2023-11-07T13:25:51.739Z,100694.56
2023-11-07T13:28:18.354Z,100706.06
2023-11-07T13:30:45.084Z,100690.84
2023-11-07T13:33:12.019Z,100661.56
2023-11-07T13:35:39.938Z,100692.78
2023-11-07T13:38:06.517Z,100713.28
2023-11-07T13:40:33.171Z,100709.78
2023-11-07T13:42:59.750Z,100714.19
2023-11-07T13:45:26.397Z,100703.56
2023-11-07T13:47:53.176Z,100692.88
2023-11-07T13:50:19.781Z,100708.88
2023-11-07T13:52:46.492Z,100718.66
2023-11-07T13:55:13.108Z,100715.09
2023-11-07T13:57:41.948Z,100712.41
2023-11-07T14:00:12.802Z,100723.09
2023-11-07T14:02:41.478Z,100722.19
2023-11-07T14:05:08.602Z,100725.75
2023-11-07T14:07:36.198Z,100723.94
2023-11-07T14:10:08.484Z,100728.31
2023-11-07T14:12:42.575Z,100714.91
2023-11-07T14:15:14.853Z,100733.53
2023-11-07T14:17:41.753Z,100726.41
2023-11-07T14:20:18.307Z,100731.66
2023-11-07T14:22:46.218Z,100732.53
2023-11-07T14:25:13.111Z,100739.63
2023-11-07T14:27:41.593Z,100715.63
2023-11-07T14:30:26.873Z,100724.53
2023-11-07T14:32:56.386Z,100708.47
2023-11-07T14:35:23.007Z,100697.94
2023-11-07T14:37:51.352Z,100724.69
2023-11-07T14:40:18.245Z,100722.00
2023-11-07T14:42:46.193Z,100719.25
2023-11-07T14:45:14.031Z,100731.59
2023-11-07T14:47:45.178Z,100707.50
2023-11-07T14:50:14.057Z,100720.81
2023-11-07T14:52:41.539Z,100734.94
2023-11-07T14:55:12.117Z,100741.16
2023-11-07T14:57:45.376Z,100742.03
2023-11-07T15:00:29.219Z,100740.22
2023-11-07T15:02:59.423Z,100743.78
2023-11-07T15:05:33.026Z,100701.94
2023-11-07T15:08:04.079Z,100731.19
2023-11-07T15:10:32.018Z,100737.19
2023-11-07T15:13:03.952Z,100736.97
2023-11-07T15:15:31.320Z,100725.25
2023-11-07T15:17:59.692Z,100702.03
2023-11-07T15:20:31.449Z,100743.00
2023-11-07T15:23:02.146Z,100755.47
2023-11-07T15:25:34.355Z,100749.31
2023-11-07T15:28:01.484Z,100732.47
2023-11-07T15:30:28.672Z,100755.44
2023-11-07T15:32:58.417Z,100727.84
2023-11-07T15:35:25.706Z,100757.09
2023-11-07T15:37:52.745Z,100753.50
2023-11-07T15:40:22.820Z,100740.06
2023-11-07T15:42:50.339Z,100726.75
2023-11-07T15:45:19.798Z,100746.28
2023-11-07T15:47:48.164Z,100743.53
2023-11-07T15:50:16.710Z,100750.47
2023-11-07T15:52:55.670Z,100749.44
2023-11-07T15:55:31.409Z,100722.56
2023-11-07T15:57:58.027Z,100738.41
2023-11-07T16:00:27.596Z,100748.91
2023-11-07T16:02:54.756Z,100740.75
2023-11-07T16:05:25.317Z,100742.38
2023-11-07T16:07:52.049Z,100720.88
2023-11-07T16:10:18.697Z,100724.38
2023-11-07T16:12:45.455Z,100742.16
2023-11-07T16:15:12.488Z,100687.69
2023-11-07T16:17:41.165Z,100739.09
2023-11-07T16:20:10.122Z,100720.25
2023-11-07T16:22:36.786Z,100710.34
2023-11-07T16:25:04.387Z,100726.34
2023-11-07T16:27:31.049Z,100722.63
2023-11-07T16:29:59.801Z,100742.22
2023-11-07T16:32:27.615Z,100735.97
2023-11-07T16:34:54.622Z,100725.13
2023-11-07T16:37:21.257Z,100729.66
2023-11-07T16:39:47.915Z,100747.69
2023-11-07T16:42:14.640Z,100752.31
2023-11-07T16:44:43.196Z,100740.03
2023-11-07T16:47:13.391Z,100742.81
2023-11-07T16:49:44.369Z,100720.63
2023-11-07T16:52:11.787Z,100750.94
2023-11-07T16:54:39.358Z,100748.28
2023-11-07T16:57:07.096Z,100759.06
2023-11-07T16:59:34.522Z,100750.09
2023-11-07T17:02:01.178Z,100752.66
2023-11-07T17:04:28.019Z,100760.47
2023-11-07T17:06:54.833Z,100764.72
2023-11-07T17:09:22.511Z,100759.31
2023-11-07T17:11:49.162Z,100755.50
2023-11-07T17:14:15.737Z,100759.75
2023-11-07T17:16:42.429Z,100753.41
2023-11-07T17:19:09.236Z,100754.22
2023-11-07T17:21:35.998Z,100736.25
2023-11-07T17:24:02.738Z,100732.47
2023-11-07T17:26:30.186Z,100764.41
2023-11-07T17:28:57.416Z,100753.72
2023-11-07T17:31:24.144Z,100747.31
2023-11-07T17:33:50.935Z,100742.72
2023-11-07T17:36:17.685Z,100739.88
2023-11-07T17:38:44.372Z,100757.69
2023-11-07T17:41:14.663Z,100728.25
2023-11-07T17:43:41.519Z,100740.59
2023-11-07T17:46:10.442Z,100755.50
2023-11-07T17:48:37.112Z,100722.56
2023-11-07T17:51:07.115Z,100765.06
2023-11-07T17:53:33.714Z,100761.56
2023-11-07T17:56:00.528Z,100736.44
2023-11-07T17:58:27.277Z,100751.59
2023-11-07T18:00:54.717Z,100763.16
2023-11-07T18:03:22.545Z,100751.41
2023-11-07T18:05:49.483Z,100749.50
2023-11-07T18:08:16.220Z,100772.50
2023-11-07T18:10:43.190Z,100771.34
2023-11-07T18:13:13.424Z,100769.63
2023-11-07T18:15:43.272Z,100758.03
2023-11-07T18:18:10.298Z,100774.03
2023-11-07T18:20:37.000Z,100774.78
2023-11-07T18:23:03.586Z,100753.34
2023-11-07T18:25:30.193Z,100776.56
2023-11-07T18:27:56.749Z,100772.84
2023-11-07T18:30:23.478Z,100755.75
2023-11-07T18:32:50.315Z,100786.25
2023-11-07T18:35:16.972Z,100780.00
2023-11-07T18:37:43.626Z,100781.78
2023-11-07T18:40:14.038Z,100756.78
2023-11-07T18:42:42.058Z,100780.16
2023-11-07T18:45:11.709Z,100785.50
2023-11-07T18:47:39.016Z,100794.28
2023-11-07T18:50:07.229Z,100776.34
2023-11-07T18:52:34.410Z,100763.03
2023-11-07T18:55:02.068Z,100787.28
2023-11-07T18:57:28.917Z,100751.69
2023-11-07T18:59:56.762Z,100792.91
2023-11-07T19:02:25.297Z,100788.53
2023-11-07T19:04:52.477Z,100767.22
2023-11-07T19:07:20.164Z,100785.22
2023-11-07T19:09:47.414Z,100793.31
2023-11-07T19:12:15.036Z,100779.09
2023-11-07T19:14:42.602Z,100772.03
2023-11-07T19:17:09.327Z,100782.75
2023-11-07T19:19:37.107Z,100782.91
2023-11-07T19:22:04.810Z,100786.47
2023-11-07T19:24:32.039Z,100792.66
2023-11-07T19:27:00.042Z,100795.25
2023-11-07T19:29:26.952Z,100793.47
2023-11-07T19:31:55.053Z,100763.19
2023-11-07T19:34:23.070Z,100805.00
2023-11-07T19:36:56.145Z,100804.06
2023-11-07T19:39:25.757Z,100810.97
2023-11-07T19:41:54.566Z,100806.50
2023-11-07T19:44:21.153Z,100803.88
2023-11-07T19:46:47.783Z,100805.75
2023-11-07T19:49:15.012Z,100790.50
2023-11-07T19:51:42.082Z,100805.00
2023-11-07T19:54:08.818Z,100822.69
2023-11-07T19:56:38.787Z,100823.53
2023-11-07T19:59:05.475Z,100801.41
2023-11-07T20:01:32.097Z,100788.09
2023-11-07T20:03:58.882Z,100811.16
2023-11-07T20:06:25.908Z,100807.63
2023-11-07T20:08:52.676Z,100825.25
2023-11-07T20:11:19.339Z,100809.19
2023-11-07T20:13:46.068Z,100825.31
2023-11-07T20:16:14.377Z,100830.56
2023-11-07T20:18:41.063Z,100828.81
2023-11-07T20:21:07.882Z,100831.44
2023-11-07T20:23:35.629Z,100816.28
2023-11-07T20:26:08.187Z,100822.25
2023-11-07T20:28:34.693Z,100835.38
2023-11-07T20:31:01.315Z,100815.44
2023-11-07T20:33:37.394Z,100815.56
2023-11-07T20:36:15.885Z,100797.72
2023-11-07T20:38:42.835Z,100802.28
2023-11-07T20:41:11.120Z,100788.44
2023-11-07T20:43:38.428Z,100818.06
2023-11-07T20:46:18.419Z,100813.78
2023-11-07T20:48:50.733Z,100818.59
2023-11-07T20:51:18.152Z,100825.84
2023-11-07T20:53:44.845Z,100834.88
2023-11-07T20:56:12.273Z,100822.63
2023-11-07T20:58:40.857Z,100789.59
2023-11-07T21:01:08.367Z,100828.97
2023-11-07T21:03:35.355Z,100817.63
2023-11-07T21:06:02.139Z,100814.94
2023-11-07T21:08:28.798Z,100817.69
2023-11-07T21:10:56.475Z,100823.97
2023-11-07T21:13:25.254Z,100825.53
2023-11-07T21:15:51.981Z,100805.06
2023-11-07T21:18:18.743Z,100810.59
2023-11-07T21:20:46.467Z,100823.03
2023-11-07T21:23:13.253Z,100821.25
2023-11-07T21:25:40.156Z,100814.88
2023-11-07T21:28:06.820Z,100828.22
2023-11-07T21:30:33.513Z,100834.41
2023-11-07T21:33:05.407Z,100820.94
2023-11-07T21:35:32.193Z,100831.50
2023-11-07T21:37:58.851Z,100824.44
2023-11-07T21:40:25.451Z,100818.84
2023-11-07T21:42:52.644Z,100808.25
2023-11-07T21:45:21.011Z,100813.34
2023-11-07T21:47:48.344Z,100802.63
2023-11-07T21:50:15.173Z,100829.25
2023-11-07T21:52:41.754Z,100816.50
2023-11-07T21:55:08.834Z,100829.66
2023-11-07T21:57:37.542Z,100802.03
2023-11-07T22:00:05.271Z,100837.59
2023-11-07T22:02:39.881Z,100834.06
2023-11-07T22:05:06.812Z,100843.75
2023-11-07T22:07:33.444Z,100825.84
2023-11-07T22:10:00.033Z,100833.94
2023-11-07T22:12:26.696Z,100838.50
2023-11-07T22:14:53.270Z,100830.81
2023-11-07T22:17:19.866Z,100841.53
2023-11-07T22:19:46.512Z,100832.66
2023-11-07T22:22:13.236Z,100827.22
2023-11-07T22:24:40.711Z,100780.88
2023-11-07T22:27:07.422Z,100829.16
2023-11-07T22:29:34.137Z,100839.63
2023-11-07T22:32:00.736Z,100800.47
2023-11-07T22:34:27.407Z,100820.09
2023-11-07T22:36:54.024Z,100828.88
2023-11-07T22:39:20.629Z,100828.00
2023-11-07T22:41:50.875Z,100828.78
2023-11-07T22:44:17.505Z,100843.03
2023-11-07T22:46:44.088Z,100855.47
2023-11-07T22:49:10.721Z,100847.47
2023-11-07T22:51:37.424Z,100845.97
2023-11-07T22:54:04.187Z,100870.03
2023-11-07T22:56:30.846Z,100830.94
2023-11-07T22:58:57.450Z,100805.03
2023-11-07T23:01:25.924Z,100871.09
2023-11-07T23:03:53.294Z,100815.69
2023-11-07T23:06:19.968Z,100869.31
2023-11-07T23:08:46.723Z,100879.13
2023-11-07T23:11:13.331Z,100875.47
2023-11-07T23:13:39.905Z,100859.19
2023-11-07T23:16:08.292Z,100868.75
2023-11-07T23:18:35.104Z,100842.72
2023-11-07T23:21:01.767Z,100881.22
2023-11-07T23:23:28.397Z,100884.84
2023-11-07T23:25:54.967Z,100883.81
2023-11-07T23:28:22.027Z,100870.97
2023-11-07T23:30:49.272Z,100871.47
2023-11-07T23:33:16.021Z,100876.78
2023-11-07T23:35:42.669Z,100850.44
2023-11-07T23:38:10.426Z,100886.81
2023-11-07T23:40:37.616Z,100880.47
2023-11-07T23:43:04.286Z,100882.41
2023-11-07T23:45:30.904Z,100829.06
2023-11-07T23:47:57.640Z,100877.53
2023-11-07T23:50:26.706Z,100873.22
2023-11-07T23:52:53.328Z,100860.84
2023-11-07T23:55:19.940Z,100846.84
2023-11-07T23:57:47.997Z,100865.81
